Time;durP1;ratioP1;P1;durP2;ratioP2;P2;SDS_P1;SDS_P2;PMS_P1;PMS_P2;Temp;Humidity;BMP_temperature;BMP_pressure;BME280_temperature;BME280_humidity;BME280_pressure;Samples;Min_cycle;Max_cycle;Signal;HPM_P1;HPM_P2
2022/08/26 00:00:36;;;;;;;13.50;12.10;;;21.20;99.90;;;;;;6223342;28;20565;-63
2022/08/26 00:03:41;;;;;;;15.50;13.10;;;21.20;99.90;;;;;;6222263;28;20233;-63
2022/08/26 00:06:44;;;;;;;13.77;12.37;;;21.10;99.90;;;;;;6222760;28;20240;-63
2022/08/26 00:09:49;;;;;;;13.30;12.00;;;21.10;99.90;;;;;;6223069;28;20228;-64
2022/08/26 00:12:56;;;;;;;13.43;12.00;;;21.10;99.90;;;;;;6223160;28;20221;-64
2022/08/26 00:16:00;;;;;;;12.87;11.67;;;21.10;99.90;;;;;;6223297;28;20262;-64
2022/08/26 00:19:05;;;;;;;14.43;11.60;;;21.20;99.90;;;;;;6223910;28;20407;-64
2022/08/26 00:22:10;;;;;;;11.73;10.63;;;21.20;99.90;;;;;;6223781;28;20681;-64
2022/08/26 00:25:14;;;;;;;14.90;12.40;;;21.20;99.90;;;;;;6223789;28;20233;-64
2022/08/26 00:28:19;;;;;;;12.60;11.50;;;21.10;99.90;;;;;;6220466;28;20248;-63
2022/08/26 00:31:23;;;;;;;12.50;11.30;;;21.00;99.90;;;;;;6227946;28;21360;-63
2022/08/26 00:34:28;;;;;;;13.47;12.23;;;21.00;99.90;;;;;;6230762;28;20575;-64
2022/08/26 00:37:31;;;;;;;15.10;12.23;;;21.00;99.90;;;;;;6227479;28;20652;-64
2022/08/26 00:40:37;;;;;;;13.60;12.07;;;20.90;99.90;;;;;;6229115;28;22736;-64
2022/08/26 00:43:41;;;;;;;15.50;12.07;;;21.00;99.90;;;;;;6229152;28;20240;-63
2022/08/26 00:46:54;;;;;;;13.10;11.80;;;21.00;99.90;;;;;;6229856;28;20239;-64
2022/08/26 00:50:01;;;;;;;16.30;12.60;;;21.00;99.90;;;;;;6228557;28;20570;-64
2022/08/26 00:53:20;;;;;;;13.50;12.20;;;21.00;99.90;;;;;;6229486;28;20588;-64
2022/08/26 00:56:31;;;;;;;15.53;12.20;;;21.00;99.90;;;;;;6229204;28;20233;-63
2022/08/26 00:59:34;;;;;;;13.00;11.80;;;21.00;99.90;;;;;;6228347;28;20226;-64
2022/08/26 01:02:41;;;;;;;14.60;13.10;;;20.90;99.90;;;;;;6229570;28;20225;-63
2022/08/26 01:05:51;;;;;;;13.33;12.03;;;20.90;99.90;;;;;;6229377;28;20237;-64
2022/08/26 01:08:56;;;;;;;13.33;12.03;;;20.90;99.90;;;;;;6229535;28;20608;-63
2022/08/26 01:12:02;;;;;;;12.43;11.23;;;20.90;99.90;;;;;;6229307;28;20228;-64
2022/08/26 01:15:06;;;;;;;12.83;11.50;;;20.90;99.90;;;;;;6229624;28;20233;-64
2022/08/26 01:18:13;;;;;;;12.53;10.90;;;20.90;99.90;;;;;;6229582;28;20257;-64
2022/08/26 01:21:26;;;;;;;12.87;11.60;;;20.80;99.90;;;;;;6229296;28;20684;-64
2022/08/26 01:24:31;;;;;;;12.60;11.40;;;20.90;99.90;;;;;;6228924;28;20252;-64
2022/08/26 01:27:35;;;;;;;12.73;11.30;;;20.70;99.90;;;;;;6229075;28;20287;-63
2022/08/26 01:30:40;;;;;;;11.40;10.40;;;20.70;99.90;;;;;;6228819;28;20732;-64
2022/08/26 01:33:51;;;;;;;13.27;11.97;;;20.70;99.90;;;;;;6228810;28;20693;-63
2022/08/26 01:37:01;;;;;;;12.83;11.57;;;20.70;99.90;;;;;;6228950;28;20715;-64
2022/08/26 01:40:09;;;;;;;12.90;11.70;;;20.70;99.90;;;;;;6228830;28;20657;-64
2022/08/26 01:43:17;;;;;;;16.10;12.20;;;20.60;99.90;;;;;;6229134;28;20564;-63
2022/08/26 01:46:23;;;;;;;15.57;11.10;;;20.60;99.90;;;;;;6228549;28;20253;-64
2022/08/26 01:49:27;;;;;;;14.77;13.07;;;20.60;99.90;;;;;;6228929;28;20186;-65
2022/08/26 01:52:37;;;;;;;12.80;11.60;;;20.60;99.90;;;;;;6228716;28;20228;-63
2022/08/26 01:55:46;;;;;;;13.47;12.10;;;20.60;99.90;;;;;;6228034;28;20236;-64
2022/08/26 01:58:53;;;;;;;15.10;12.23;;;20.60;99.90;;;;;;6203624;28;20230;-65
2022/08/26 02:01:57;;;;;;;13.20;11.30;;;20.60;99.90;;;;;;6204548;28;20233;-64
2022/08/26 02:05:05;;;;;;;12.10;10.90;;;20.50;99.90;;;;;;6226314;28;20247;-64
2022/08/26 02:08:08;;;;;;;12.70;11.43;;;20.50;99.90;;;;;;6227885;28;20228;-64
2022/08/26 02:11:13;;;;;;;12.90;11.70;;;20.50;99.90;;;;;;6227302;28;20307;-64
2022/08/26 02:14:24;;;;;;;11.70;10.50;;;20.50;99.90;;;;;;6225650;28;20243;-64
2022/08/26 02:17:33;;;;;;;17.03;11.63;;;20.60;99.90;;;;;;6218954;28;20333;-63
2022/08/26 02:20:37;;;;;;;13.70;12.27;;;20.50;99.90;;;;;;6227097;28;20665;-65
2022/08/26 02:23:40;;;;;;;12.80;11.60;;;20.40;99.90;;;;;;6227178;28;20236;-64
2022/08/26 02:26:47;;;;;;;12.17;11.00;;;20.40;99.90;;;;;;6226431;28;20240;-64
2022/08/26 02:29:54;;;;;;;14.57;12.70;;;20.40;99.90;;;;;;6227179;28;20217;-64
2022/08/26 02:33:02;;;;;;;12.33;11.13;;;20.30;99.90;;;;;;6224178;28;20221;-64
2022/08/26 02:36:06;;;;;;;13.10;11.73;;;20.30;99.90;;;;;;6224208;28;20221;-64
2022/08/26 02:39:10;;;;;;;13.50;12.20;;;20.30;99.90;;;;;;6225822;28;20221;-64
2022/08/26 02:42:14;;;;;;;12.13;11.03;;;20.30;99.90;;;;;;6226272;28;20244;-64
2022/08/26 02:45:18;;;;;;;13.13;11.80;;;20.30;99.90;;;;;;6227223;28;20577;-64
2022/08/26 02:48:25;;;;;;;12.57;11.23;;;20.30;99.90;;;;;;6227044;28;20282;-65
2022/08/26 02:51:28;;;;;;;15.80;11.60;;;20.30;99.90;;;;;;6226886;28;20233;-64
2022/08/26 02:54:31;;;;;;;14.33;11.40;;;20.20;99.90;;;;;;6225910;28;20229;-64
2022/08/26 02:57:36;;;;;;;13.50;12.20;;;20.20;99.90;;;;;;6227663;28;20229;-63
2022/08/26 03:00:40;;;;;;;12.93;11.73;;;20.20;99.90;;;;;;6226240;28;20229;-63
2022/08/26 03:03:56;;;;;;;13.03;11.73;;;20.20;99.90;;;;;;6226926;28;20569;-63
2022/08/26 03:06:59;;;;;;;13.63;12.13;;;20.10;99.90;;;;;;6226817;28;20244;-63
2022/08/26 03:10:03;;;;;;;14.10;12.90;;;20.10;99.90;;;;;;6226872;28;20229;-63
2022/08/26 03:13:12;;;;;;;13.83;12.53;;;20.10;99.90;;;;;;6226806;28;20606;-63
2022/08/26 03:16:15;;;;;;;15.57;14.00;;;20.20;99.90;;;;;;6225375;28;20229;-63
2022/08/26 03:19:18;;;;;;;16.83;13.90;;;20.20;99.90;;;;;;6220001;28;20395;-64
2022/08/26 03:22:21;;;;;;;14.43;12.93;;;20.20;99.90;;;;;;6225398;28;20205;-63
2022/08/26 03:25:25;;;;;;;14.83;12.87;;;20.20;99.90;;;;;;6225431;28;20243;-64
2022/08/26 03:28:30;;;;;;;14.23;12.77;;;20.10;99.90;;;;;;6225936;28;20229;-64
2022/08/26 03:31:32;;;;;;;14.77;12.93;;;20.10;99.90;;;;;;6226673;28;20219;-63
2022/08/26 03:34:36;;;;;;;12.67;11.57;;;20.10;99.90;;;;;;6226360;28;20204;-63
2022/08/26 03:37:40;;;;;;;13.23;11.87;;;20.10;99.90;;;;;;6226636;28;20225;-63
2022/08/26 03:40:44;;;;;;;14.77;13.03;;;20.10;99.90;;;;;;6225595;28;20260;-63
2022/08/26 03:43:49;;;;;;;15.37;12.37;;;20.10;99.90;;;;;;6227060;28;20225;-63
2022/08/26 03:46:53;;;;;;;14.23;12.83;;;20.20;99.90;;;;;;6226161;28;20236;-63
2022/08/26 03:49:58;;;;;;;14.40;13.10;;;20.20;99.90;;;;;;6226141;28;20247;-63
2022/08/26 03:53:02;;;;;;;14.10;12.70;;;20.10;99.90;;;;;;6225727;28;20232;-63
2022/08/26 03:56:06;;;;;;;14.23;12.80;;;20.10;99.90;;;;;;6225523;28;20316;-63
2022/08/26 03:59:10;;;;;;;14.63;12.83;;;20.10;99.90;;;;;;6226384;28;20665;-63
2022/08/26 04:02:14;;;;;;;18.60;13.90;;;20.00;99.90;;;;;;6225764;28;20233;-63
2022/08/26 04:05:21;;;;;;;14.53;13.13;;;20.00;99.90;;;;;;6225925;28;20245;-63
2022/08/26 04:08:24;;;;;;;16.63;12.27;;;19.90;99.90;;;;;;6225555;28;20661;-63
2022/08/26 04:11:32;;;;;;;13.63;12.23;;;19.90;99.90;;;;;;6225205;28;20359;-63
2022/08/26 04:14:38;;;;;;;14.47;11.27;;;20.00;99.90;;;;;;6225742;28;20255;-64
2022/08/26 04:17:42;;;;;;;12.67;11.37;;;20.00;99.90;;;;;;6225709;28;20239;-63
2022/08/26 04:20:46;;;;;;;14.03;12.43;;;20.00;99.90;;;;;;6225507;28;20228;-63
2022/08/26 04:23:49;;;;;;;14.00;12.60;;;20.00;99.90;;;;;;6225298;28;20229;-64
2022/08/26 04:26:54;;;;;;;12.53;11.23;;;20.00;99.90;;;;;;6225209;28;20236;-63
2022/08/26 04:29:58;;;;;;;12.67;11.37;;;20.00;99.90;;;;;;6225632;28;20239;-63
2022/08/26 04:33:03;;;;;;;14.47;12.93;;;20.00;99.90;;;;;;6225076;28;20577;-63
2022/08/26 04:36:15;;;;;;;16.77;12.27;;;20.00;99.90;;;;;;6225365;28;20713;-63
2022/08/26 04:39:19;;;;;;;14.37;12.83;;;20.00;99.90;;;;;;6225278;28;20236;-63
2022/08/26 04:42:22;;;;;;;14.77;13.27;;;20.10;99.90;;;;;;6225027;28;20665;-63
2022/08/26 04:45:29;;;;;;;15.37;13.77;;;20.10;99.90;;;;;;6225338;28;20805;-63
2022/08/26 04:48:34;;;;;;;15.63;13.97;;;20.10;99.90;;;;;;6225179;28;20578;-63
2022/08/26 04:51:38;;;;;;;14.53;13.20;;;20.10;99.90;;;;;;6224825;28;20229;-63
2022/08/26 04:54:41;;;;;;;15.30;13.67;;;20.20;99.90;;;;;;6224889;28;20695;-63
2022/08/26 04:57:45;;;;;;;16.33;13.77;;;20.20;99.90;;;;;;6225061;28;20324;-64
2022/08/26 05:00:51;;;;;;;14.93;13.43;;;20.20;99.90;;;;;;6224958;28;20680;-63
2022/08/26 05:03:55;;;;;;;14.10;12.60;;;20.30;99.90;;;;;;6224971;28;20768;-63
2022/08/26 05:06:59;;;;;;;13.87;12.47;;;20.30;99.90;;;;;;6224792;28;20316;-63
2022/08/26 05:10:06;;;;;;;16.70;15.00;;;20.50;99.90;;;;;;6225173;28;20308;-62
2022/08/26 05:13:11;;;;;;;15.53;13.20;;;20.50;99.90;;;;;;6224438;28;20748;-63
2022/08/26 05:16:18;;;;;;;14.40;13.00;;;20.50;99.90;;;;;;6225039;28;20729;-64
2022/08/26 05:19:22;;;;;;;14.33;12.90;;;20.60;99.90;;;;;;6224993;28;20504;-65
2022/08/26 05:22:25;;;;;;;19.47;13.57;;;20.80;99.90;;;;;;6225815;28;20201;-65
2022/08/26 05:25:28;;;;;;;13.50;12.17;;;20.90;99.90;;;;;;6228871;28;20225;-65
2022/08/26 05:28:32;;;;;;;14.27;12.70;;;21.00;99.90;;;;;;6219756;28;20229;-65
2022/08/26 05:31:36;;;;;;;14.77;13.27;;;21.10;99.90;;;;;;6229036;28;20201;-65
2022/08/26 05:34:39;;;;;;;13.43;12.13;;;21.20;99.90;;;;;;6228978;28;20229;-65
2022/08/26 05:37:44;;;;;;;19.40;12.93;;;21.20;99.90;;;;;;6229296;28;20232;-65
2022/08/26 05:40:50;;;;;;;15.00;13.40;;;21.30;99.90;;;;;;6228375;28;20231;-65
2022/08/26 05:43:56;;;;;;;14.53;13.20;;;21.50;99.90;;;;;;6228622;28;20224;-65
2022/08/26 05:47:01;;;;;;;13.70;12.27;;;21.70;99.90;;;;;;6228844;28;20236;-65
2022/08/26 05:50:06;;;;;;;12.83;11.30;;;22.20;99.90;;;;;;6228741;28;20558;-66
2022/08/26 05:53:11;;;;;;;13.03;11.80;;;22.80;99.90;;;;;;6228799;28;20546;-65
2022/08/26 05:56:16;;;;;;;13.00;11.90;;;23.30;99.90;;;;;;6228685;28;20569;-66
2022/08/26 05:59:20;;;;;;;12.10;11.00;;;23.90;99.90;;;;;;6227151;28;20570;-66
2022/08/26 06:02:28;;;;;;;14.60;13.10;;;24.40;99.90;;;;;;6226815;28;20367;-66
2022/08/26 06:05:31;;;;;;;12.40;11.10;;;25.00;99.90;;;;;;6224687;28;20229;-66
2022/08/26 06:08:41;;;;;;;12.70;11.40;;;25.60;99.90;;;;;;6225034;28;20684;-66
2022/08/26 06:11:44;;;;;;;15.27;11.33;;;26.20;99.90;;;;;;6228139;28;20240;-66
2022/08/26 06:14:48;;;;;;;14.20;12.90;;;26.90;99.10;;;;;;6228097;28;20232;-66
2022/08/26 06:17:52;;;;;;;12.40;11.20;;;27.20;97.60;;;;;;6227414;28;20231;-65
2022/08/26 06:20:55;;;;;;;13.17;11.70;;;27.60;96.50;;;;;;6226351;28;20564;-65
2022/08/26 06:27:29;;;;;;;13.07;11.40;;;28.40;94.30;;;;;;6226174;28;20220;-66
2022/08/26 06:30:39;;;;;;;12.37;10.93;;;28.70;93.80;;;;;;6226533;28;20238;-65
2022/08/26 06:33:44;;;;;;;12.30;11.10;;;29.20;92.50;;;;;;6222158;28;20233;-65
2022/08/26 06:36:48;;;;;;;13.17;11.93;;;29.70;91.30;;;;;;6227086;28;20255;-67
2022/08/26 06:39:55;;;;;;;12.60;11.40;;;30.30;89.70;;;;;;6227460;28;20228;-65
2022/08/26 06:42:59;;;;;;;12.67;11.57;;;31.00;86.20;;;;;;6226845;28;20692;-68
2022/08/26 06:46:04;;;;;;;11.48;10.40;;;31.40;83.70;;;;;;6226887;28;20243;-66
2022/08/26 06:49:09;;;;;;;11.35;10.27;;;32.00;80.20;;;;;;6227091;28;20575;-66
2022/08/26 06:52:12;;;;;;;12.48;11.10;;;32.60;77.50;;;;;;6227355;28;20236;-66
2022/08/26 06:55:15;;;;;;;13.23;11.93;;;33.30;74.40;;;;;;6226986;28;20244;-66
2022/08/26 06:58:20;;;;;;;11.38;10.38;;;33.90;70.90;;;;;;6226342;28;20204;-66
2022/08/26 07:01:26;;;;;;;13.82;11.50;;;34.40;68.20;;;;;;6226984;28;20201;-66
2022/08/26 07:04:31;;;;;;;14.73;11.27;;;35.20;64.90;;;;;;6227307;28;20193;-67
2022/08/26 07:07:35;;;;;;;13.63;10.43;;;35.70;61.40;;;;;;6227065;28;20229;-66
2022/08/26 07:10:38;;;;;;;10.73;9.63;;;36.20;59.10;;;;;;6227135;28;20215;-67
2022/08/26 07:13:42;;;;;;;12.40;10.23;;;36.70;56.50;;;;;;6227187;28;20228;-66
2022/08/26 07:16:46;;;;;;;14.93;11.38;;;37.10;54.80;;;;;;6227000;28;20232;-66
2022/08/26 07:19:51;;;;;;;15.43;11.82;;;37.60;53.40;;;;;;6227320;28;20220;-66
2022/08/26 07:22:54;;;;;;;11.27;10.05;;;38.20;52.00;;;;;;6226737;28;20672;-66
2022/08/26 07:25:57;;;;;;;11.15;10.07;;;38.90;50.00;;;;;;6226813;28;20232;-66
2022/08/26 07:29:01;;;;;;;13.38;10.10;;;39.20;48.70;;;;;;6226675;28;20239;-66
2022/08/26 07:32:05;;;;;;;12.07;10.88;;;39.70;47.50;;;;;;6226692;28;20627;-66
2022/08/26 07:35:10;;;;;;;10.73;9.75;;;40.40;45.80;;;;;;6226591;28;20229;-66
2022/08/26 07:38:13;;;;;;;11.20;10.10;;;41.20;44.10;;;;;;6222327;28;20310;-67
2022/08/26 07:41:19;;;;;;;10.95;9.73;;;41.60;42.80;;;;;;6226369;28;20228;-66
2022/08/26 07:44:22;;;;;;;10.30;9.30;;;42.20;41.60;;;;;;6226290;28;20263;-66
2022/08/26 07:47:26;;;;;;;10.77;9.77;;;43.00;40.20;;;;;;6225879;28;20314;-66
2022/08/26 07:50:31;;;;;;;13.38;12.07;;;43.50;38.70;;;;;;6226055;28;20231;-66
2022/08/26 07:53:53;;;;;;;11.35;9.88;;;44.20;37.80;;;;;;6224959;28;20291;-66
2022/08/26 07:56:56;;;;;;;11.70;10.50;;;45.10;36.30;;;;;;6225134;28;20663;-66
2022/08/26 08:00:00;;;;;;;11.40;10.20;;;45.80;34.80;;;;;;6225044;28;20227;-66
2022/08/26 08:03:05;;;;;;;10.57;9.40;;;46.00;34.00;;;;;;6222355;28;20220;-66
2022/08/26 08:06:10;;;;;;;11.48;10.45;;;46.80;32.90;;;;;;6224952;28;20233;-66
2022/08/26 08:09:14;;;;;;;10.63;9.52;;;47.30;31.50;;;;;;6225496;28;20236;-67
2022/08/26 08:12:19;;;;;;;12.38;9.75;;;47.80;30.70;;;;;;6224434;28;20220;-66
2022/08/26 08:15:26;;;;;;;10.32;9.50;;;47.90;30.00;;;;;;6225402;28;20236;-67
2022/08/26 08:18:29;;;;;;;10.60;9.60;;;48.30;29.90;;;;;;6224907;28;20220;-67
2022/08/26 08:21:34;;;;;;;10.20;9.23;;;49.00;29.00;;;;;;6225084;28;20224;-66
2022/08/26 08:24:38;;;;;;;9.77;8.98;;;49.00;28.40;;;;;;6225253;28;20530;-66
2022/08/26 08:27:44;;;;;;;10.82;9.82;;;48.90;28.00;;;;;;6225302;28;20630;-67
2022/08/26 08:30:47;;;;;;;10.45;9.63;;;49.20;27.80;;;;;;6225211;28;20226;-67
2022/08/26 08:33:51;;;;;;;9.43;8.63;;;49.70;27.40;;;;;;6225305;28;20227;-66
2022/08/26 08:36:56;;;;;;;10.85;9.82;;;50.00;26.80;;;;;;6224672;28;20223;-67
2022/08/26 08:39:59;;;;;;;10.27;9.30;;;50.70;26.90;;;;;;6224138;28;20545;-67
2022/08/26 08:43:05;;;;;;;9.38;8.43;;;50.90;26.20;;;;;;6216875;28;20242;-67
2022/08/26 08:46:12;;;;;;;10.68;8.00;;;51.10;25.60;;;;;;6225336;28;20232;-67
2022/08/26 08:49:16;;;;;;;9.18;8.38;;;51.70;25.20;;;;;;6225234;28;20329;-66
2022/08/26 08:52:28;;;;;;;9.52;8.48;;;51.90;24.90;;;;;;6225002;28;20239;-66
2022/08/26 08:55:42;;;;;;;9.93;9.23;;;52.50;24.60;;;;;;6224616;28;20696;-63
2022/08/26 08:58:56;;;;;;;10.57;9.52;;;53.20;24.20;;;;;;6221138;28;20290;-63
2022/08/26 09:02:05;;;;;;;8.88;8.20;;;53.00;24.10;;;;;;6228996;28;20228;-63
2022/08/26 09:05:16;;;;;;;9.80;8.90;;;52.30;24.10;;;;;;6229257;28;20224;-63
2022/08/26 09:08:26;;;;;;;9.38;8.30;;;51.50;24.30;;;;;;6228865;28;20307;-63
2022/08/26 09:11:30;;;;;;;9.68;7.75;;;52.10;23.90;;;;;;6229342;28;20378;-64
2022/08/26 09:14:34;;;;;;;8.25;7.65;;;52.20;23.50;;;;;;6229284;28;20536;-64
2022/08/26 09:17:46;;;;;;;12.40;8.60;;;52.40;23.60;;;;;;6229284;28;20238;-63
2022/08/26 09:20:55;;;;;;;8.93;8.13;;;53.20;23.40;;;;;;6228858;28;20307;-63
2022/08/26 09:24:00;;;;;;;10.27;8.18;;;53.00;23.00;;;;;;6228144;28;20220;-63
2022/08/26 09:27:03;;;;;;;12.40;9.35;;;52.70;23.60;;;;;;6229406;28;20306;-67
2022/08/26 09:30:09;;;;;;;8.68;7.85;;;51.70;24.10;;;;;;6229240;28;20235;-64
2022/08/26 09:33:18;;;;;;;8.82;7.60;;;50.60;24.50;;;;;;6228700;28;20750;-68
2022/08/26 09:36:33;;;;;;;10.65;8.75;;;49.80;25.20;;;;;;6226750;28;20254;-67
2022/08/26 09:39:42;;;;;;;9.07;8.35;;;48.00;26.30;;;;;;6229258;28;20240;-66
2022/08/26 09:42:46;;;;;;;9.27;8.43;;;46.00;27.80;;;;;;6228741;28;20255;-63
2022/08/26 09:45:53;;;;;;;8.68;7.75;;;44.60;28.80;;;;;;6223923;28;20239;-65
2022/08/26 09:49:23;;;;;;;10.90;9.90;;;43.40;29.90;;;;;;6228140;28;20657;-64
2022/08/26 09:52:27;;;;;;;10.27;9.38;;;42.00;31.90;;;;;;6225967;28;20213;-64
2022/08/26 09:55:32;;;;;;;10.82;9.43;;;40.30;34.20;;;;;;6226839;28;20236;-65
2022/08/26 09:58:38;;;;;;;10.90;9.70;;;38.90;36.10;;;;;;6226807;28;20197;-65
2022/08/26 10:01:44;;;;;;;10.13;9.13;;;37.60;38.10;;;;;;6221430;28;20236;-67
2022/08/26 10:04:52;;;;;;;9.80;8.82;;;37.10;39.30;;;;;;6227837;28;20231;-67
2022/08/26 10:07:57;;;;;;;10.75;8.85;;;36.80;40.00;;;;;;6226453;28;20225;-68
2022/08/26 10:11:11;;;;;;;14.73;8.70;;;36.40;40.30;;;;;;6227120;28;20228;-67
2022/08/26 10:14:19;;;;;;;12.50;8.40;;;36.00;40.90;;;;;;6204051;28;20229;-69
2022/08/26 10:17:27;;;;;;;9.40;8.48;;;35.60;41.20;;;;;;6220632;28;20362;-64
2022/08/26 10:20:37;;;;;;;13.95;9.85;;;35.30;42.10;;;;;;6223846;28;20224;-64
2022/08/26 10:23:44;;;;;;;11.02;9.45;;;35.00;43.00;;;;;;6226708;28;20547;-64
2022/08/26 10:27:00;;;;;;;9.50;8.40;;;34.90;43.20;;;;;;6226234;28;20232;-66
2022/08/26 10:30:09;;;;;;;9.05;8.27;;;34.20;44.40;;;;;;6227149;28;20267;-66
2022/08/26 10:33:15;;;;;;;10.65;8.93;;;34.00;45.50;;;;;;6227934;28;20656;-66
2022/08/26 10:40:07;;;;;;;8.25;7.43;;;34.00;45.50;;;;;;6227243;28;20235;-66
2022/08/26 10:43:19;;;;;;;8.65;7.85;;;33.80;46.00;;;;;;6227450;28;20307;-67
2022/08/26 10:46:27;;;;;;;10.57;8.88;;;34.10;45.60;;;;;;6227464;28;20332;-67
2022/08/26 10:49:30;;;;;;;7.55;6.88;;;34.40;44.00;;;;;;6225719;28;20267;-67
2022/08/26 10:52:44;;;;;;;14.60;7.93;;;34.70;44.10;;;;;;6227047;28;20240;-66
2022/08/26 10:56:00;;;;;;;10.23;8.00;;;35.10;42.80;;;;;;6225599;28;20232;-64
2022/08/26 10:59:11;;;;;;;12.20;7.22;;;35.40;42.40;;;;;;6225643;28;20240;-64
2022/08/26 11:02:23;;;;;;;10.48;8.13;;;36.10;40.50;;;;;;6225448;28;20224;-64
2022/08/26 11:05:27;;;;;;;9.18;7.35;;;36.40;40.20;;;;;;6226869;28;20610;-63
2022/08/26 11:08:32;;;;;;;12.25;8.32;;;36.50;40.10;;;;;;6226913;28;20236;-64
2022/08/26 11:11:48;;;;;;;14.40;7.68;;;36.70;39.20;;;;;;6226802;28;20220;-64
2022/08/26 11:14:52;;;;;;;11.23;7.57;;;36.10;38.80;;;;;;6226685;28;20247;-64
2022/08/26 11:18:03;;;;;;;10.57;7.15;;;35.90;39.40;;;;;;6226395;28;20228;-64
2022/08/26 11:21:45;;;;;;;13.25;6.82;;;36.10;39.80;;;;;;6225912;28;20240;-68
2022/08/26 11:25:10;;;;;;;9.60;6.82;;;36.50;39.20;;;;;;6225864;28;20240;-68
2022/08/26 11:28:34;;;;;;;8.43;7.32;;;36.40;38.30;;;;;;6226004;28;20535;-68
2022/08/26 11:31:55;;;;;;;8.55;6.97;;;36.10;38.90;;;;;;6226339;28;20212;-66
2022/08/26 11:34:59;;;;;;;7.25;6.53;;;35.60;40.00;;;;;;6224785;28;20228;-65
2022/08/26 11:38:15;;;;;;;9.52;6.57;;;35.30;40.00;;;;;;6224537;28;20224;-65
2022/08/26 11:41:27;;;;;;;9.55;7.05;;;35.30;39.60;;;;;;6223571;28;20233;-65
2022/08/26 11:44:39;;;;;;;8.57;6.95;;;35.40;40.20;;;;;;6225435;28;20234;-65
2022/08/26 11:47:45;;;;;;;10.32;7.22;;;35.60;40.60;;;;;;6225857;28;20229;-65
2022/08/26 11:50:54;;;;;;;8.75;7.38;;;35.50;40.30;;;;;;6225701;28;20677;-63
2022/08/26 11:54:10;;;;;;;14.93;7.72;;;35.50;40.10;;;;;;6216826;28;20235;-66
2022/08/26 11:57:13;;;;;;;11.88;7.57;;;35.40;40.10;;;;;;6225599;28;20240;-63
2022/08/26 12:00:21;;;;;;;7.03;6.07;;;35.50;40.00;;;;;;6225317;28;20232;-70
2022/08/26 12:03:36;;;;;;;12.73;6.90;;;35.40;39.50;;;;;;6225756;28;20233;-65
2022/08/26 12:06:45;;;;;;;9.85;6.95;;;35.20;39.30;;;;;;6224834;28;20692;-66
2022/08/26 12:09:54;;;;;;;5.90;5.30;;;35.40;39.20;;;;;;6225272;28;20243;-64
2022/08/26 12:13:00;;;;;;;15.32;6.63;;;35.60;38.80;;;;;;6225294;28;20243;-66
2022/08/26 12:16:03;;;;;;;10.60;6.32;;;35.60;38.90;;;;;;6224520;28;20231;-63
2022/08/26 12:19:25;;;;;;;10.95;6.68;;;35.30;38.80;;;;;;6225237;28;20226;-63
2022/08/26 12:22:33;;;;;;;10.43;7.25;;;35.00;39.20;;;;;;6225226;28;20284;-63
2022/08/26 12:25:39;;;;;;;11.48;7.00;;;35.00;39.10;;;;;;6224917;28;20236;-63
2022/08/26 12:28:47;;;;;;;14.00;6.70;;;34.70;40.20;;;;;;6225345;28;20232;-63
2022/08/26 12:31:50;;;;;;;13.20;7.15;;;34.70;40.30;;;;;;6224249;28;20220;-63
2022/08/26 12:34:55;;;;;;;10.98;6.28;;;34.80;40.50;;;;;;6229086;28;20386;-65
2022/08/26 12:37:58;;;;;;;11.75;6.60;;;34.40;41.00;;;;;;6226970;28;20220;-65
2022/08/26 12:41:02;;;;;;;9.95;6.78;;;34.50;40.90;;;;;;6229000;28;20295;-64
2022/08/26 12:44:05;;;;;;;13.25;6.55;;;34.40;40.80;;;;;;6229266;28;20231;-64
2022/08/26 12:47:16;;;;;;;9.02;7.22;;;34.10;41.10;;;;;;6229253;28;20662;-64
2022/08/26 12:50:38;;;;;;;8.38;6.45;;;34.20;41.10;;;;;;6228917;28;20224;-63
2022/08/26 12:53:43;;;;;;;10.52;6.35;;;33.70;42.20;;;;;;6227334;28;20523;-64
2022/08/26 12:56:46;;;;;;;10.48;6.25;;;33.60;42.00;;;;;;6224211;28;20311;-64
2022/08/26 12:59:53;;;;;;;13.60;7.00;;;33.80;41.30;;;;;;6228365;28;20514;-64
2022/08/26 13:02:57;;;;;;;12.38;6.75;;;33.70;41.20;;;;;;6228149;28;20217;-64
2022/08/26 13:06:14;;;;;;;9.55;6.13;;;33.60;41.70;;;;;;6229353;28;20334;-64
2022/08/26 13:09:30;;;;;;;11.48;6.85;;;33.70;42.60;;;;;;6229009;28;20232;-64
2022/08/26 13:12:36;;;;;;;16.77;6.93;;;33.70;42.50;;;;;;6229228;28;20224;-64
2022/08/26 13:15:40;;;;;;;9.73;6.70;;;33.40;42.60;;;;;;6229310;28;20315;-64
2022/08/26 13:18:43;;;;;;;12.48;7.53;;;33.40;43.00;;;;;;6228576;28;20307;-64
2022/08/26 13:21:51;;;;;;;11.00;7.03;;;33.50;42.80;;;;;;6229203;28;20363;-64
2022/08/26 13:24:56;;;;;;;16.20;6.82;;;33.20;43.30;;;;;;6227861;28;20339;-64
2022/08/26 13:27:59;;;;;;;11.00;6.38;;;33.10;43.80;;;;;;6226061;28;20270;-64
2022/08/26 13:31:04;;;;;;;10.50;7.22;;;33.10;43.90;;;;;;6228958;28;20229;-64
2022/08/26 13:34:09;;;;;;;16.95;8.05;;;32.90;43.00;;;;;;6228248;28;20286;-64
2022/08/26 13:37:14;;;;;;;12.30;6.65;;;32.90;43.60;;;;;;6227939;28;20224;-64
2022/08/26 13:40:17;;;;;;;8.52;6.45;;;32.60;44.50;;;;;;6227003;28;20366;-64
2022/08/26 13:43:20;;;;;;;7.15;5.47;;;32.50;44.90;;;;;;6226504;28;20714;-64
2022/08/26 13:46:23;;;;;;;13.95;6.30;;;32.70;44.70;;;;;;6227109;28;20311;-64
2022/08/26 13:49:27;;;;;;;8.30;5.93;;;32.80;45.00;;;;;;6226711;28;20732;-64
2022/08/26 13:52:31;;;;;;;11.43;6.80;;;32.70;45.60;;;;;;6225034;28;20335;-65
2022/08/26 13:55:34;;;;;;;10.10;6.15;;;32.60;45.30;;;;;;6227191;28;20232;-66
2022/08/26 13:58:38;;;;;;;14.38;6.57;;;32.50;46.30;;;;;;6224087;28;20205;-66
2022/08/26 14:01:41;;;;;;;8.95;5.85;;;32.40;46.30;;;;;;6228755;28;20201;-66
2022/08/26 14:04:44;;;;;;;15.38;6.63;;;32.20;45.70;;;;;;6228416;28;20558;-66
2022/08/26 14:07:48;;;;;;;12.68;7.75;;;32.20;45.90;;;;;;6228492;28;20303;-66
2022/08/26 14:10:52;;;;;;;9.82;6.65;;;32.20;44.90;;;;;;6228028;28;20657;-66
2022/08/26 14:13:55;;;;;;;13.10;7.53;;;32.20;45.30;;;;;;6227900;28;20220;-64
2022/08/26 14:16:58;;;;;;;12.00;6.85;;;32.00;46.50;;;;;;6228024;28;20695;-64
2022/08/26 14:20:04;;;;;;;9.57;6.55;;;31.90;46.20;;;;;;6227611;28;20221;-64
2022/08/26 14:23:09;;;;;;;16.58;6.85;;;31.80;46.40;;;;;;6226680;28;20299;-64
2022/08/26 14:26:16;;;;;;;12.90;7.03;;;31.70;47.20;;;;;;6225578;28;20224;-64
2022/08/26 14:29:31;;;;;;;10.35;6.65;;;31.70;47.70;;;;;;6226393;28;20332;-64
2022/08/26 14:32:35;;;;;;;10.63;6.03;;;31.70;47.50;;;;;;6227341;28;20232;-63
2022/08/26 14:35:39;;;;;;;10.40;7.72;;;31.70;47.80;;;;;;6227403;28;20262;-64
2022/08/26 14:38:51;;;;;;;12.43;7.72;;;31.70;48.20;;;;;;6227561;28;20279;-64
2022/08/26 14:41:56;;;;;;;8.63;7.10;;;31.80;47.40;;;;;;6227177;28;20545;-64
2022/08/26 14:45:01;;;;;;;11.85;7.82;;;31.90;47.80;;;;;;6227222;28;20235;-64
2022/08/26 14:48:06;;;;;;;8.80;8.00;;;32.00;48.80;;;;;;6227334;28;20240;-64
2022/08/26 14:51:09;;;;;;;13.27;7.72;;;31.90;49.10;;;;;;6226926;28;20221;-64
2022/08/26 14:54:15;;;;;;;10.77;7.18;;;31.80;48.70;;;;;;6227077;28;20228;-67
2022/08/26 14:57:18;;;;;;;12.07;7.22;;;31.70;48.50;;;;;;6225875;28;20254;-67
2022/08/26 15:00:22;;;;;;;10.55;7.88;;;31.70;48.40;;;;;;6226680;28;20303;-70
2022/08/26 15:03:26;;;;;;;8.93;6.88;;;31.90;48.70;;;;;;6222448;28;20259;-68
2022/08/26 15:06:30;;;;;;;12.68;7.05;;;32.00;48.60;;;;;;6226586;28;20673;-70
2022/08/26 15:09:36;;;;;;;22.63;8.27;;;31.80;48.30;;;;;;6226518;28;20572;-63
2022/08/26 15:12:40;;;;;;;11.32;6.82;;;31.80;48.70;;;;;;6226374;28;20371;-64
2022/08/26 15:15:43;;;;;;;11.40;6.50;;;31.80;49.10;;;;;;6226316;28;20236;-64
2022/08/26 15:18:47;;;;;;;12.23;7.88;;;31.70;49.10;;;;;;6226426;28;20307;-65
2022/08/26 15:21:50;;;;;;;13.90;7.93;;;31.70;49.00;;;;;;6226122;28;20677;-65
2022/08/26 15:24:56;;;;;;;10.57;7.70;;;31.80;48.70;;;;;;6226130;28;20375;-64
2022/08/26 15:28:00;;;;;;;12.68;7.93;;;31.80;48.70;;;;;;6226199;28;20315;-64
2022/08/26 15:31:03;;;;;;;8.55;6.30;;;31.80;48.30;;;;;;6225611;28;20371;-65
2022/08/26 15:34:09;;;;;;;10.75;7.00;;;31.70;48.60;;;;;;6225989;28;20240;-64
2022/08/26 15:37:18;;;;;;;14.70;7.80;;;31.70;49.00;;;;;;6225935;28;20237;-64
2022/08/26 15:40:23;;;;;;;12.30;7.72;;;31.70;49.20;;;;;;6225600;28;20228;-64
2022/08/26 15:43:26;;;;;;;12.88;6.93;;;31.70;49.30;;;;;;6225879;28;20754;-64
2022/08/26 15:46:33;;;;;;;9.05;7.70;;;31.80;49.10;;;;;;6225493;28;20232;-64
2022/08/26 15:49:37;;;;;;;9.68;7.30;;;31.50;49.60;;;;;;6225584;28;20209;-64
2022/08/26 15:52:40;;;;;;;10.55;7.05;;;31.40;50.20;;;;;;6225418;28;20216;-64
2022/08/26 15:55:45;;;;;;;9.00;6.95;;;31.40;49.60;;;;;;6224842;28;20228;-64
2022/08/26 15:58:49;;;;;;;11.93;7.15;;;31.40;49.70;;;;;;6224774;28;20240;-64